Brannan Island, California
Current Conditions -  °F | °C
As of 9:59 AM on Friday 19 Dec 2014 (Local Time) from KSUU Reporting Station
Light Rain Light Rain  
Wind Chill: 52°   Ceiling: Unl
Heat Index: 52°   Visibility: 10mi
Dew Point: 50°   Wind: 10mph
Humidity: 94%   Direction: 120°ESE
Pressure: 30.15"   Gusts: NA
Location:  38.1457°N, 121.624°W
Report Text: KSUU 191759Z AUTO 12009KT 10SM -RA FEW039 11/10 A3015 RMK AO2 RAB58 $
Loading
Personal Weather Stations






























Interactive Weather Map New forecast layout! Learn more

10-Day Weather Forecast

Advertisements
Track Severe Weather on mobile